sensor_id;sensor_type;location;lat;lon;timestamp;P1;P2;P0
73749;PMS7003;62058;48.406;-4.514;2023-04-19T00:01:59;16.33;9.33;9.33
73749;PMS7003;62058;48.406;-4.514;2023-04-19T00:04:25;17.75;10.50;8.75
73749;PMS7003;62058;48.406;-4.514;2023-04-19T00:06:50;15.33;12.67;12.00
73749;PMS7003;62058;48.406;-4.514;2023-04-19T00:09:16;13.75;8.50;8.00
73749;PMS7003;62058;48.406;-4.514;2023-04-19T00:11:42;11.33;9.33;9.00
73749;PMS7003;62058;48.406;-4.514;2023-04-19T00:14:07;18.00;9.00;9.00
73749;PMS7003;62058;48.406;-4.514;2023-04-19T00:16:32;19.00;13.00;12.00
73749;PMS7003;62058;48.406;-4.514;2023-04-19T00:18:57;22.67;11.67;9.33
73749;PMS7003;62058;48.406;-4.514;2023-04-19T00:21:22;22.00;13.00;12.33
73749;PMS7003;62058;48.406;-4.514;2023-04-19T00:23:48;19.33;10.67;10.00
73749;PMS7003;62058;48.406;-4.514;2023-04-19T00:26:13;9.33;9.33;9.33
73749;PMS7003;62058;48.406;-4.514;2023-04-19T00:28:39;12.00;12.00;12.00
73749;PMS7003;62058;48.406;-4.514;2023-04-19T00:31:04;24.00;18.67;15.67
73749;PMS7003;62058;48.406;-4.514;2023-04-19T00:33:30;9.33;9.33;9.33
73749;PMS7003;62058;48.406;-4.514;2023-04-19T00:35:56;23.75;18.75;16.00
73749;PMS7003;62058;48.406;-4.514;2023-04-19T00:38:21;13.67;9.67;9.00
73749;PMS7003;62058;48.406;-4.514;2023-04-19T00:40:46;18.00;13.67;13.00
73749;PMS7003;62058;48.406;-4.514;2023-04-19T00:43:15;19.00;15.00;14.33
73749;PMS7003;62058;48.406;-4.514;2023-04-19T00:45:40;23.75;14.75;13.25
73749;PMS7003;62058;48.406;-4.514;2023-04-19T00:48:06;22.33;18.00;16.00
73749;PMS7003;62058;48.406;-4.514;2023-04-19T00:50:31;14.50;12.25;11.75
73749;PMS7003;62058;48.406;-4.514;2023-04-19T00:52:57;17.67;14.00;10.33
73749;PMS7003;62058;48.406;-4.514;2023-04-19T00:55:22;24.67;16.00;15.00
73749;PMS7003;62058;48.406;-4.514;2023-04-19T00:57:48;9.00;9.00;9.00
73749;PMS7003;62058;48.406;-4.514;2023-04-19T01:00:15;17.25;13.50;10.50
73749;PMS7003;62058;48.406;-4.514;2023-04-19T01:02:41;7.50;5.50;5.00
73749;PMS7003;62058;48.406;-4.514;2023-04-19T01:05:06;19.67;14.33;12.67
73749;PMS7003;62058;48.406;-4.514;2023-04-19T01:07:34;17.25;13.00;12.00
73749;PMS7003;62058;48.406;-4.514;2023-04-19T01:09:59;27.25;20.25;15.50
73749;PMS7003;62058;48.406;-4.514;2023-04-19T01:12:25;20.33;12.67;11.33
73749;PMS7003;62058;48.406;-4.514;2023-04-19T01:14:50;12.67;8.33;7.00
73749;PMS7003;62058;48.406;-4.514;2023-04-19T01:17:15;19.67;14.67;13.33
73749;PMS7003;62058;48.406;-4.514;2023-04-19T01:19:41;18.00;17.50;15.75
73749;PMS7003;62058;48.406;-4.514;2023-04-19T01:22:07;22.67;14.67;13.67
73749;PMS7003;62058;48.406;-4.514;2023-04-19T01:24:33;19.75;16.00;14.50
73749;PMS7003;62058;48.406;-4.514;2023-04-19T01:26:58;21.00;17.33;16.33
73749;PMS7003;62058;48.406;-4.514;2023-04-19T01:29:23;24.00;21.25;18.50
73749;PMS7003;62058;48.406;-4.514;2023-04-19T01:31:49;19.50;14.50;12.75
73749;PMS7003;62058;48.406;-4.514;2023-04-19T01:34:20;24.75;15.25;15.25
73749;PMS7003;62058;48.406;-4.514;2023-04-19T01:36:47;24.25;21.50;18.50
73749;PMS7003;62058;48.406;-4.514;2023-04-19T01:39:12;17.67;16.00;13.67
73749;PMS7003;62058;48.406;-4.514;2023-04-19T01:41:37;20.50;17.00;14.00
73749;PMS7003;62058;48.406;-4.514;2023-04-19T01:44:02;19.33;16.67;15.00
73749;PMS7003;62058;48.406;-4.514;2023-04-19T01:46:28;32.00;17.75;14.00
73749;PMS7003;62058;48.406;-4.514;2023-04-19T01:48:53;21.33;12.67;11.33
73749;PMS7003;62058;48.406;-4.514;2023-04-19T01:51:18;25.67;16.00;15.00
73749;PMS7003;62058;48.406;-4.514;2023-04-19T01:53:45;20.75;15.50;14.50
73749;PMS7003;62058;48.406;-4.514;2023-04-19T01:56:10;23.67;19.67;18.33
73749;PMS7003;62058;48.406;-4.514;2023-04-19T01:58:36;55.33;44.33;29.00
73749;PMS7003;62058;48.406;-4.514;2023-04-19T02:01:01;20.33;15.00;14.33
73749;PMS7003;62058;48.406;-4.514;2023-04-19T02:03:26;19.67;16.00;13.00
73749;PMS7003;62058;48.406;-4.514;2023-04-19T02:05:51;23.67;23.33;18.33
73749;PMS7003;62058;48.406;-4.514;2023-04-19T02:08:16;23.67;18.67;16.67
73749;PMS7003;62058;48.406;-4.514;2023-04-19T02:10:42;30.67;24.00;19.00
73749;PMS7003;62058;48.406;-4.514;2023-04-19T02:13:07;27.33;18.00;16.00
73749;PMS7003;62058;48.406;-4.514;2023-04-19T02:15:32;20.33;15.00;14.00
73749;PMS7003;62058;48.406;-4.514;2023-04-19T02:17:57;24.75;17.00;14.50
73749;PMS7003;62058;48.406;-4.514;2023-04-19T02:20:24;23.00;19.50;16.00
73749;PMS7003;62058;48.406;-4.514;2023-04-19T02:22:49;30.00;24.00;20.67
73749;PMS7003;62058;48.406;-4.514;2023-04-19T02:25:14;21.00;19.67;16.00
73749;PMS7003;62058;48.406;-4.514;2023-04-19T02:27:40;19.25;14.50;12.75
73749;PMS7003;62058;48.406;-4.514;2023-04-19T02:30:05;38.33;27.00;22.00
73749;PMS7003;62058;48.406;-4.514;2023-04-19T02:32:31;21.50;19.00;15.50
73749;PMS7003;62058;48.406;-4.514;2023-04-19T02:34:56;28.33;18.67;17.33
73749;PMS7003;62058;48.406;-4.514;2023-04-19T02:37:21;20.33;13.00;12.00
73749;PMS7003;62058;48.406;-4.514;2023-04-19T02:39:46;27.00;19.00;18.00
73749;PMS7003;62058;48.406;-4.514;2023-04-19T02:42:12;27.00;21.00;18.67
73749;PMS7003;62058;48.406;-4.514;2023-04-19T02:44:37;34.33;24.33;19.00
73749;PMS7003;62058;48.406;-4.514;2023-04-19T02:47:02;20.33;15.33;10.67
73749;PMS7003;62058;48.406;-4.514;2023-04-19T02:49:29;44.00;27.67;22.67
73749;PMS7003;62058;48.406;-4.514;2023-04-19T02:51:56;25.00;17.75;14.25
73749;PMS7003;62058;48.406;-4.514;2023-04-19T02:54:21;33.00;27.33;23.00
73749;PMS7003;62058;48.406;-4.514;2023-04-19T02:56:46;25.33;22.00;17.33
73749;PMS7003;62058;48.406;-4.514;2023-04-19T02:59:12;35.33;24.67;19.67
73749;PMS7003;62058;48.406;-4.514;2023-04-19T03:01:37;36.67;27.67;22.00
73749;PMS7003;62058;48.406;-4.514;2023-04-19T03:04:02;12.33;10.67;9.33
73749;PMS7003;62058;48.406;-4.514;2023-04-19T03:06:27;35.50;24.75;21.75
73749;PMS7003;62058;48.406;-4.514;2023-04-19T03:08:53;30.00;23.33;18.67
73749;PMS7003;62058;48.406;-4.514;2023-04-19T03:11:18;23.67;15.67;12.67
73749;PMS7003;62058;48.406;-4.514;2023-04-19T03:13:43;18.33;14.33;12.00
73749;PMS7003;62058;48.406;-4.514;2023-04-19T03:16:08;32.33;24.33;22.00
73749;PMS7003;62058;48.406;-4.514;2023-04-19T03:18:34;30.25;23.00;20.25
73749;PMS7003;62058;48.406;-4.514;2023-04-19T03:20:59;37.00;27.67;23.33
73749;PMS7003;62058;48.406;-4.514;2023-04-19T03:23:24;24.67;21.67;19.67
73749;PMS7003;62058;48.406;-4.514;2023-04-19T03:25:50;32.50;21.75;19.50
73749;PMS7003;62058;48.406;-4.514;2023-04-19T03:28:16;30.33;25.67;21.33
73749;PMS7003;62058;48.406;-4.514;2023-04-19T03:30:41;37.00;30.00;23.00
73749;PMS7003;62058;48.406;-4.514;2023-04-19T03:33:06;42.00;31.00;23.33
73749;PMS7003;62058;48.406;-4.514;2023-04-19T03:35:31;37.00;25.00;21.25
73749;PMS7003;62058;48.406;-4.514;2023-04-19T03:37:57;30.00;21.00;16.67
73749;PMS7003;62058;48.406;-4.514;2023-04-19T03:40:22;42.75;31.50;25.00
73749;PMS7003;62058;48.406;-4.514;2023-04-19T03:42:47;27.00;21.67;17.33
73749;PMS7003;62058;48.406;-4.514;2023-04-19T03:45:12;32.67;22.33;16.00
73749;PMS7003;62058;48.406;-4.514;2023-04-19T03:47:38;35.67;31.67;27.00
73749;PMS7003;62058;48.406;-4.514;2023-04-19T03:50:03;34.67;27.00;21.00
73749;PMS7003;62058;48.406;-4.514;2023-04-19T03:52:28;43.50;28.75;22.50
73749;PMS7003;62058;48.406;-4.514;2023-04-19T03:54:53;29.67;20.33;15.67
73749;PMS7003;62058;48.406;-4.514;2023-04-19T03:57:19;34.00;31.67;24.00
73749;PMS7003;62058;48.406;-4.514;2023-04-19T03:59:44;30.00;21.00;18.00
73749;PMS7003;62058;48.406;-4.514;2023-04-19T04:02:09;21.00;18.67;15.67
73749;PMS7003;62058;48.406;-4.514;2023-04-19T04:04:34;36.00;22.00;18.00
73749;PMS7003;62058;48.406;-4.514;2023-04-19T04:06:59;38.33;27.33;22.00
73749;PMS7003;62058;48.406;-4.514;2023-04-19T04:09:25;39.25;26.25;22.25
73749;PMS7003;62058;48.406;-4.514;2023-04-19T04:11:50;37.67;29.67;22.00
73749;PMS7003;62058;48.406;-4.514;2023-04-19T04:14:15;49.33;34.67;27.33
73749;PMS7003;62058;48.406;-4.514;2023-04-19T04:16:41;31.33;27.00;22.00
73749;PMS7003;62058;48.406;-4.514;2023-04-19T04:19:06;44.00;31.33;23.67
73749;PMS7003;62058;48.406;-4.514;2023-04-19T04:21:31;32.75;22.00;16.25
73749;PMS7003;62058;48.406;-4.514;2023-04-19T04:23:57;44.00;29.50;26.00
73749;PMS7003;62058;48.406;-4.514;2023-04-19T04:26:22;35.25;23.00;20.75
73749;PMS7003;62058;48.406;-4.514;2023-04-19T04:28:49;34.50;26.00;21.25
73749;PMS7003;62058;48.406;-4.514;2023-04-19T04:31:14;25.25;13.50;12.25
73749;PMS7003;62058;48.406;-4.514;2023-04-19T04:33:41;38.00;30.00;25.25
73749;PMS7003;62058;48.406;-4.514;2023-04-19T04:36:07;36.50;28.00;21.75
73749;PMS7003;62058;48.406;-4.514;2023-04-19T04:38:32;45.00;32.50;23.50
73749;PMS7003;62058;48.406;-4.514;2023-04-19T04:40:57;42.33;28.00;19.67
73749;PMS7003;62058;48.406;-4.514;2023-04-19T04:43:23;42.25;27.00;21.00
73749;PMS7003;62058;48.406;-4.514;2023-04-19T04:45:49;33.75;26.50;23.00
73749;PMS7003;62058;48.406;-4.514;2023-04-19T04:48:15;14.00;11.75;11.75
73749;PMS7003;62058;48.406;-4.514;2023-04-19T04:50:40;41.33;28.67;24.00
73749;PMS7003;62058;48.406;-4.514;2023-04-19T04:53:05;32.25;25.50;23.00
73749;PMS7003;62058;48.406;-4.514;2023-04-19T04:55:31;41.33;27.33;22.00
73749;PMS7003;62058;48.406;-4.514;2023-04-19T04:57:56;39.33;26.33;21.67
73749;PMS7003;62058;48.406;-4.514;2023-04-19T05:00:21;43.67;31.67;24.33
73749;PMS7003;62058;48.406;-4.514;2023-04-19T05:02:47;39.25;31.50;26.00
73749;PMS7003;62058;48.406;-4.514;2023-04-19T05:05:12;35.67;25.67;20.67
73749;PMS7003;62058;48.406;-4.514;2023-04-19T05:07:37;34.67;27.33;21.33
73749;PMS7003;62058;48.406;-4.514;2023-04-19T05:10:03;37.75;29.25;22.75
73749;PMS7003;62058;48.406;-4.514;2023-04-19T05:12:28;42.75;32.25;27.25
73749;PMS7003;62058;48.406;-4.514;2023-04-19T05:14:53;32.33;29.67;24.33
73749;PMS7003;62058;48.406;-4.514;2023-04-19T05:17:18;39.67;25.67;22.00
73749;PMS7003;62058;48.406;-4.514;2023-04-19T05:19:44;38.33;32.67;28.33
73749;PMS7003;62058;48.406;-4.514;2023-04-19T05:22:09;42.00;31.00;27.00
73749;PMS7003;62058;48.406;-4.514;2023-04-19T05:24:35;35.50;28.75;24.25
73749;PMS7003;62058;48.406;-4.514;2023-04-19T05:27:00;43.33;33.00;25.67
73749;PMS7003;62058;48.406;-4.514;2023-04-19T05:29:25;27.50;23.50;19.50
73749;PMS7003;62058;48.406;-4.514;2023-04-19T05:31:51;43.25;35.75;27.50
73749;PMS7003;62058;48.406;-4.514;2023-04-19T05:34:16;37.67;32.33;27.00
73749;PMS7003;62058;48.406;-4.514;2023-04-19T05:36:41;39.00;28.67;23.33
73749;PMS7003;62058;48.406;-4.514;2023-04-19T05:39:06;46.33;30.33;22.67
73749;PMS7003;62058;48.406;-4.514;2023-04-19T05:41:32;30.00;25.00;19.00
73749;PMS7003;62058;48.406;-4.514;2023-04-19T05:43:57;25.00;19.00;15.67
73749;PMS7003;62058;48.406;-4.514;2023-04-19T05:46:22;53.33;34.00;30.00
73749;PMS7003;62058;48.406;-4.514;2023-04-19T05:48:47;34.67;24.67;20.67
73749;PMS7003;62058;48.406;-4.514;2023-04-19T05:51:12;28.33;23.67;19.67
73749;PMS7003;62058;48.406;-4.514;2023-04-19T05:53:38;41.25;30.75;24.50
73749;PMS7003;62058;48.406;-4.514;2023-04-19T05:56:03;39.33;30.67;24.33
73749;PMS7003;62058;48.406;-4.514;2023-04-19T05:58:29;42.75;32.00;26.00
73749;PMS7003;62058;48.406;-4.514;2023-04-19T06:00:54;40.33;31.67;27.00
73749;PMS7003;62058;48.406;-4.514;2023-04-19T06:03:19;28.33;21.67;19.67
73749;PMS7003;62058;48.406;-4.514;2023-04-19T06:05:44;30.25;26.00;17.75
73749;PMS7003;62058;48.406;-4.514;2023-04-19T06:08:10;33.00;26.67;21.00
73749;PMS7003;62058;48.406;-4.514;2023-04-19T06:10:35;42.00;35.25;27.25
73749;PMS7003;62058;48.406;-4.514;2023-04-19T06:13:01;37.50;30.00;23.50
73749;PMS7003;62058;48.406;-4.514;2023-04-19T06:15:26;31.33;21.67;18.33
73749;PMS7003;62058;48.406;-4.514;2023-04-19T06:17:51;36.33;24.67;21.33
73749;PMS7003;62058;48.406;-4.514;2023-04-19T06:20:16;35.67;24.33;16.67
73749;PMS7003;62058;48.406;-4.514;2023-04-19T06:22:43;37.67;29.33;25.67
73749;PMS7003;62058;48.406;-4.514;2023-04-19T06:25:08;42.75;36.00;27.00
73749;PMS7003;62058;48.406;-4.514;2023-04-19T06:27:34;32.00;27.67;21.67
73749;PMS7003;62058;48.406;-4.514;2023-04-19T06:29:59;21.33;21.33;18.33
73749;PMS7003;62058;48.406;-4.514;2023-04-19T06:32:25;40.50;34.00;26.00
73749;PMS7003;62058;48.406;-4.514;2023-04-19T06:34:50;35.25;27.25;20.00
73749;PMS7003;62058;48.406;-4.514;2023-04-19T06:37:15;45.67;33.33;25.00
73749;PMS7003;62058;48.406;-4.514;2023-04-19T06:39:40;40.33;34.00;26.00
73749;PMS7003;62058;48.406;-4.514;2023-04-19T06:42:06;47.67;31.67;24.00
73749;PMS7003;62058;48.406;-4.514;2023-04-19T06:44:31;21.67;16.67;15.67
73749;PMS7003;62058;48.406;-4.514;2023-04-19T06:46:56;33.25;27.50;23.50
73749;PMS7003;62058;48.406;-4.514;2023-04-19T06:49:21;44.00;29.00;22.67
73749;PMS7003;62058;48.406;-4.514;2023-04-19T06:51:47;40.33;30.67;26.33
73749;PMS7003;62058;48.406;-4.514;2023-04-19T06:54:12;44.67;28.00;19.33
73749;PMS7003;62058;48.406;-4.514;2023-04-19T06:56:37;40.33;27.00;21.67
73749;PMS7003;62058;48.406;-4.514;2023-04-19T06:59:03;32.50;22.00;18.25
73749;PMS7003;62058;48.406;-4.514;2023-04-19T07:01:28;43.67;31.67;25.67
73749;PMS7003;62058;48.406;-4.514;2023-04-19T07:03:53;40.67;27.67;24.33
73749;PMS7003;62058;48.406;-4.514;2023-04-19T07:06:19;40.25;29.50;24.00
73749;PMS7003;62058;48.406;-4.514;2023-04-19T07:08:45;42.00;32.67;26.33
73749;PMS7003;62058;48.406;-4.514;2023-04-19T07:11:10;40.00;26.33;20.33
73749;PMS7003;62058;48.406;-4.514;2023-04-19T07:13:35;38.33;26.33;24.33
73749;PMS7003;62058;48.406;-4.514;2023-04-19T07:16:02;59.00;42.75;29.00
73749;PMS7003;62058;48.406;-4.514;2023-04-19T07:18:28;23.25;13.25;10.50
73749;PMS7003;62058;48.406;-4.514;2023-04-19T07:20:53;39.00;27.33;22.00
73749;PMS7003;62058;48.406;-4.514;2023-04-19T07:23:18;36.33;29.33;24.00
73749;PMS7003;62058;48.406;-4.514;2023-04-19T07:25:43;39.00;26.50;21.25
73749;PMS7003;62058;48.406;-4.514;2023-04-19T07:28:08;43.67;30.33;20.33
73749;PMS7003;62058;48.406;-4.514;2023-04-19T07:30:34;30.33;30.33;24.00
73749;PMS7003;62058;48.406;-4.514;2023-04-19T07:32:59;54.50;40.50;26.00
73749;PMS7003;62058;48.406;-4.514;2023-04-19T07:35:25;50.00;36.25;26.75
73749;PMS7003;62058;48.406;-4.514;2023-04-19T07:37:50;19.33;19.33;14.33
73749;PMS7003;62058;48.406;-4.514;2023-04-19T07:40:15;35.67;31.67;24.33
73749;PMS7003;62058;48.406;-4.514;2023-04-19T07:42:41;51.67;38.67;28.00
73749;PMS7003;62058;48.406;-4.514;2023-04-19T07:45:06;44.50;28.00;19.50
73749;PMS7003;62058;48.406;-4.514;2023-04-19T07:47:32;57.50;40.00;28.00
73749;PMS7003;62058;48.406;-4.514;2023-04-19T07:49:58;54.00;40.00;27.00
73749;PMS7003;62058;48.406;-4.514;2023-04-19T07:52:23;48.67;34.33;25.33
73749;PMS7003;62058;48.406;-4.514;2023-04-19T07:54:48;54.67;39.00;27.00
73749;PMS7003;62058;48.406;-4.514;2023-04-19T07:57:13;51.75;41.50;27.25
73749;PMS7003;62058;48.406;-4.514;2023-04-19T07:59:39;46.67;38.67;25.00
73749;PMS7003;62058;48.406;-4.514;2023-04-19T08:02:04;57.00;42.67;26.00
73749;PMS7003;62058;48.406;-4.514;2023-04-19T08:04:29;57.50;38.25;26.50
73749;PMS7003;62058;48.406;-4.514;2023-04-19T08:06:54;30.33;20.33;14.67
73749;PMS7003;62058;48.406;-4.514;2023-04-19T08:09:20;51.25;41.25;27.25
73749;PMS7003;62058;48.406;-4.514;2023-04-19T08:11:45;52.75;38.00;25.25
73749;PMS7003;62058;48.406;-4.514;2023-04-19T08:14:10;55.50;40.00;25.50
73749;PMS7003;62058;48.406;-4.514;2023-04-19T08:16:36;49.00;35.50;24.50
73749;PMS7003;62058;48.406;-4.514;2023-04-19T08:19:01;51.33;39.00;25.67
73749;PMS7003;62058;48.406;-4.514;2023-04-19T08:21:26;57.33;44.00;28.00
73749;PMS7003;62058;48.406;-4.514;2023-04-19T08:23:51;51.00;40.00;28.00
73749;PMS7003;62058;48.406;-4.514;2023-04-19T08:26:17;51.00;39.75;25.50
73749;PMS7003;62058;48.406;-4.514;2023-04-19T08:28:42;51.00;41.67;27.00
73749;PMS7003;62058;48.406;-4.514;2023-04-19T08:31:08;50.67;39.67;26.67
73749;PMS7003;62058;48.406;-4.514;2023-04-19T08:33:34;52.50;44.00;29.75
73749;PMS7003;62058;48.406;-4.514;2023-04-19T08:35:59;44.00;33.75;22.75
73749;PMS7003;62058;48.406;-4.514;2023-04-19T08:38:24;49.00;39.00;26.33
73749;PMS7003;62058;48.406;-4.514;2023-04-19T08:40:53;48.67;36.00;25.33
73749;PMS7003;62058;48.406;-4.514;2023-04-19T08:43:22;45.50;35.25;23.75
73749;PMS7003;62058;48.406;-4.514;2023-04-19T08:45:48;48.75;39.00;26.00
73749;PMS7003;62058;48.406;-4.514;2023-04-19T08:48:14;54.00;41.50;27.25
73749;PMS7003;62058;48.406;-4.514;2023-04-19T08:50:40;52.00;43.00;29.75
73749;PMS7003;62058;48.406;-4.514;2023-04-19T08:53:08;35.25;30.00;22.00
73749;PMS7003;62058;48.406;-4.514;2023-04-19T08:55:35;50.50;37.75;25.00
73749;PMS7003;62058;48.406;-4.514;2023-04-19T08:58:02;52.25;40.75;27.50
73749;PMS7003;62058;48.406;-4.514;2023-04-19T09:00:27;42.50;32.75;23.25
73749;PMS7003;62058;48.406;-4.514;2023-04-19T09:02:53;43.33;34.00;22.00
73749;PMS7003;62058;48.406;-4.514;2023-04-19T09:05:19;41.75;33.75;24.25
73749;PMS7003;62058;48.406;-4.514;2023-04-19T09:07:45;48.50;37.50;25.50
73749;PMS7003;62058;48.406;-4.514;2023-04-19T09:10:11;54.75;44.00;30.00
73749;PMS7003;62058;48.406;-4.514;2023-04-19T09:12:37;49.75;39.75;27.25
73749;PMS7003;62058;48.406;-4.514;2023-04-19T09:15:03;40.00;31.50;24.50
73749;PMS7003;62058;48.406;-4.514;2023-04-19T09:17:30;49.25;39.25;27.00
73749;PMS7003;62058;48.406;-4.514;2023-04-19T09:19:56;60.00;47.00;30.75
73749;PMS7003;62058;48.406;-4.514;2023-04-19T09:22:21;58.25;45.50;29.00
73749;PMS7003;62058;48.406;-4.514;2023-04-19T09:24:46;57.00;43.33;28.67
73749;PMS7003;62058;48.406;-4.514;2023-04-19T09:27:13;55.50;42.00;29.00
73749;PMS7003;62058;48.406;-4.514;2023-04-19T09:29:39;55.50;42.00;27.50
73749;PMS7003;62058;48.406;-4.514;2023-04-19T09:32:04;47.00;33.33;23.33
73749;PMS7003;62058;48.406;-4.514;2023-04-19T09:34:30;55.25;40.75;26.75
73749;PMS7003;62058;48.406;-4.514;2023-04-19T09:36:55;43.67;33.33;19.00
73749;PMS7003;62058;48.406;-4.514;2023-04-19T09:39:27;49.75;39.50;26.25
73749;PMS7003;62058;48.406;-4.514;2023-04-19T09:41:53;51.75;40.50;27.50
73749;PMS7003;62058;48.406;-4.514;2023-04-19T09:44:19;58.00;43.50;28.50
73749;PMS7003;62058;48.406;-4.514;2023-04-19T09:46:44;48.50;40.50;27.50
73749;PMS7003;62058;48.406;-4.514;2023-04-19T09:51:39;54.00;39.75;28.75
73749;PMS7003;62058;48.406;-4.514;2023-04-19T09:54:05;57.50;46.75;28.25
73749;PMS7003;62058;48.406;-4.514;2023-04-19T09:56:30;55.33;41.67;27.33
73749;PMS7003;62058;48.406;-4.514;2023-04-19T09:58:55;45.33;31.33;20.33
73749;PMS7003;62058;48.406;-4.514;2023-04-19T10:01:20;48.67;35.67;24.33
73749;PMS7003;62058;48.406;-4.514;2023-04-19T10:03:49;37.25;27.50;18.50
73749;PMS7003;62058;48.406;-4.514;2023-04-19T10:06:16;50.75;39.00;26.50
73749;PMS7003;62058;48.406;-4.514;2023-04-19T10:08:42;42.00;37.00;25.00
73749;PMS7003;62058;48.406;-4.514;2023-04-19T10:11:09;52.50;35.25;27.75
73749;PMS7003;62058;48.406;-4.514;2023-04-19T10:13:35;51.50;36.75;25.50
73749;PMS7003;62058;48.406;-4.514;2023-04-19T10:16:01;40.00;35.25;26.00
73749;PMS7003;62058;48.406;-4.514;2023-04-19T10:18:27;45.00;36.50;25.00
73749;PMS7003;62058;48.406;-4.514;2023-04-19T10:20:57;29.25;28.25;20.75
73749;PMS7003;62058;48.406;-4.514;2023-04-19T10:23:23;33.50;26.50;19.50
73749;PMS7003;62058;48.406;-4.514;2023-04-19T10:25:54;51.75;39.50;27.50
73749;PMS7003;62058;48.406;-4.514;2023-04-19T10:28:19;33.00;25.00;18.75
73749;PMS7003;62058;48.406;-4.514;2023-04-19T10:30:54;41.33;34.33;25.67
73749;PMS7003;62058;48.406;-4.514;2023-04-19T10:33:25;44.00;35.00;25.00
73749;PMS7003;62058;48.406;-4.514;2023-04-19T10:35:53;36.25;26.00;21.50
73749;PMS7003;62058;48.406;-4.514;2023-04-19T10:38:19;32.50;27.75;19.50
73749;PMS7003;62058;48.406;-4.514;2023-04-19T10:41:03;41.50;34.50;25.25
73749;PMS7003;62058;48.406;-4.514;2023-04-19T10:43:30;44.75;35.25;25.25
73749;PMS7003;62058;48.406;-4.514;2023-04-19T10:45:59;49.75;39.00;25.75
73749;PMS7003;62058;48.406;-4.514;2023-04-19T10:56:16;43.75;33.75;23.75
73749;PMS7003;62058;48.406;-4.514;2023-04-19T11:04:01;38.25;28.75;14.75
73749;PMS7003;62058;48.406;-4.514;2023-04-19T11:06:27;40.00;28.50;20.75
73749;PMS7003;62058;48.406;-4.514;2023-04-19T11:08:52;32.00;26.33;21.00
73749;PMS7003;62058;48.406;-4.514;2023-04-19T11:11:18;42.50;36.00;24.25
73749;PMS7003;62058;48.406;-4.514;2023-04-19T11:13:43;45.25;35.00;24.00
73749;PMS7003;62058;48.406;-4.514;2023-04-19T11:16:11;38.50;33.75;21.75
73749;PMS7003;62058;48.406;-4.514;2023-04-19T11:18:36;36.75;32.50;22.75
73749;PMS7003;62058;48.406;-4.514;2023-04-19T11:21:01;47.67;33.00;24.00
73749;PMS7003;62058;48.406;-4.514;2023-04-19T11:23:26;34.00;32.67;22.67
73749;PMS7003;62058;48.406;-4.514;2023-04-19T11:25:51;46.00;35.33;23.00
73749;PMS7003;62058;48.406;-4.514;2023-04-19T11:28:17;30.25;29.75;22.50
73749;PMS7003;62058;48.406;-4.514;2023-04-19T11:30:42;39.25;34.25;23.75
73749;PMS7003;62058;48.406;-4.514;2023-04-19T11:33:08;42.00;35.00;25.00
73749;PMS7003;62058;48.406;-4.514;2023-04-19T11:35:36;40.75;33.00;21.50
73749;PMS7003;62058;48.406;-4.514;2023-04-19T11:38:01;32.33;27.00;20.67
73749;PMS7003;62058;48.406;-4.514;2023-04-19T11:40:28;29.50;25.75;19.50
73749;PMS7003;62058;48.406;-4.514;2023-04-19T11:42:57;30.50;27.25;20.25
73749;PMS7003;62058;48.406;-4.514;2023-04-19T11:45:28;28.75;25.25;20.75
73749;PMS7003;62058;48.406;-4.514;2023-04-19T11:47:54;29.00;25.25;19.75
73749;PMS7003;62058;48.406;-4.514;2023-04-19T11:52:54;31.00;28.00;20.75
73749;PMS7003;62058;48.406;-4.514;2023-04-19T11:55:20;34.00;29.33;21.00
73749;PMS7003;62058;48.406;-4.514;2023-04-19T11:57:45;40.00;26.75;21.75
73749;PMS7003;62058;48.406;-4.514;2023-04-19T12:00:12;33.25;27.50;19.50
73749;PMS7003;62058;48.406;-4.514;2023-04-19T12:02:38;40.75;28.75;21.00
73749;PMS7003;62058;48.406;-4.514;2023-04-19T12:05:07;33.75;27.25;19.50
73749;PMS7003;62058;48.406;-4.514;2023-04-19T12:07:32;30.25;25.75;20.25
73749;PMS7003;62058;48.406;-4.514;2023-04-19T12:09:58;28.33;23.67;18.67
73749;PMS7003;62058;48.406;-4.514;2023-04-19T12:12:31;29.00;28.00;19.75
73749;PMS7003;62058;48.406;-4.514;2023-04-19T12:14:57;30.67;28.00;21.00
73749;PMS7003;62058;48.406;-4.514;2023-04-19T12:17:22;37.33;31.33;22.00
73749;PMS7003;62058;48.406;-4.514;2023-04-19T12:19:47;31.67;25.33;19.33
73749;PMS7003;62058;48.406;-4.514;2023-04-19T12:22:13;23.00;19.67;16.67
73749;PMS7003;62058;48.406;-4.514;2023-04-19T12:24:39;27.75;23.00;17.00
73749;PMS7003;62058;48.406;-4.514;2023-04-19T12:27:05;24.25;19.00;16.75
73749;PMS7003;62058;48.406;-4.514;2023-04-19T12:29:30;26.50;20.25;16.75
73749;PMS7003;62058;48.406;-4.514;2023-04-19T12:31:55;22.50;20.00;18.00
73749;PMS7003;62058;48.406;-4.514;2023-04-19T12:34:20;23.33;22.67;18.00
73749;PMS7003;62058;48.406;-4.514;2023-04-19T12:36:46;23.00;21.00;16.67
73749;PMS7003;62058;48.406;-4.514;2023-04-19T12:39:11;25.33;22.67;18.33
73749;PMS7003;62058;48.406;-4.514;2023-04-19T12:41:36;25.25;22.75;18.50
73749;PMS7003;62058;48.406;-4.514;2023-04-19T12:44:01;25.00;22.33;16.67
73749;PMS7003;62058;48.406;-4.514;2023-04-19T12:46:27;25.33;22.33;17.67
73749;PMS7003;62058;48.406;-4.514;2023-04-19T12:48:52;24.25;17.00;15.00
73749;PMS7003;62058;48.406;-4.514;2023-04-19T12:51:17;25.67;18.67;16.33
73749;PMS7003;62058;48.406;-4.514;2023-04-19T12:53:46;23.67;19.67;17.33
73749;PMS7003;62058;48.406;-4.514;2023-04-19T12:56:11;17.75;16.50;12.75
73749;PMS7003;62058;48.406;-4.514;2023-04-19T12:58:37;19.75;17.50;15.25
73749;PMS7003;62058;48.406;-4.514;2023-04-19T13:01:02;20.50;16.00;11.50
73749;PMS7003;62058;48.406;-4.514;2023-04-19T13:03:27;22.33;21.00;18.00
73749;PMS7003;62058;48.406;-4.514;2023-04-19T13:05:56;20.75;17.75;13.50
73749;PMS7003;62058;48.406;-4.514;2023-04-19T13:08:21;25.33;18.00;16.00
73749;PMS7003;62058;48.406;-4.514;2023-04-19T13:10:47;18.67;18.67;16.67
73749;PMS7003;62058;48.406;-4.514;2023-04-19T13:13:12;20.33;17.33;13.67
73749;PMS7003;62058;48.406;-4.514;2023-04-19T13:15:37;20.33;17.67;13.33
73749;PMS7003;62058;48.406;-4.514;2023-04-19T13:18:03;18.00;17.25;13.75
73749;PMS7003;62058;48.406;-4.514;2023-04-19T13:20:28;20.67;19.67;15.33
73749;PMS7003;62058;48.406;-4.514;2023-04-19T13:22:53;22.33;21.00;17.67
73749;PMS7003;62058;48.406;-4.514;2023-04-19T13:25:19;25.00;23.33;19.33
73749;PMS7003;62058;48.406;-4.514;2023-04-19T13:27:44;40.33;31.33;21.67
73749;PMS7003;62058;48.406;-4.514;2023-04-19T13:30:11;41.75;33.00;23.75
73749;PMS7003;62058;48.406;-4.514;2023-04-19T13:32:36;40.25;29.75;21.25
73749;PMS7003;62058;48.406;-4.514;2023-04-19T13:35:01;51.00;37.25;25.00
73749;PMS7003;62058;48.406;-4.514;2023-04-19T13:37:27;37.50;31.75;23.50
73749;PMS7003;62058;48.406;-4.514;2023-04-19T13:39:52;37.75;33.25;23.75
73749;PMS7003;62058;48.406;-4.514;2023-04-19T13:42:17;37.00;34.67;24.67
73749;PMS7003;62058;48.406;-4.514;2023-04-19T13:44:43;41.25;32.75;24.75